sensor_id;sensor_type;location;lat;lon;timestamp;P1;durP1;ratioP1;P2;durP2;ratioP2
76155;SDS011;64906;51.290;7.348;2023-02-24T00:01:45;44.80;;;24.73;;
76155;SDS011;64906;51.290;7.348;2023-02-24T00:04:16;41.25;;;23.42;;
76155;SDS011;64906;51.290;7.348;2023-02-24T00:06:43;44.05;;;24.33;;
76155;SDS011;64906;51.290;7.348;2023-02-24T00:09:12;42.35;;;24.00;;
76155;SDS011;64906;51.290;7.348;2023-02-24T00:11:46;45.58;;;24.75;;
76155;SDS011;64906;51.290;7.348;2023-02-24T00:14:22;42.63;;;23.55;;
76155;SDS011;64906;51.290;7.348;2023-02-24T00:16:50;39.50;;;23.42;;
76155;SDS011;64906;51.290;7.348;2023-02-24T00:19:19;42.22;;;23.30;;
76155;SDS011;64906;51.290;7.348;2023-02-24T00:21:47;43.15;;;23.40;;
76155;SDS011;64906;51.290;7.348;2023-02-24T00:24:15;48.53;;;24.65;;
76155;SDS011;64906;51.290;7.348;2023-02-24T00:26:42;42.00;;;23.08;;
76155;SDS011;64906;51.290;7.348;2023-02-24T00:29:10;47.58;;;24.30;;
76155;SDS011;64906;51.290;7.348;2023-02-24T00:31:37;41.28;;;23.20;;
76155;SDS011;64906;51.290;7.348;2023-02-24T00:34:06;42.80;;;22.27;;
76155;SDS011;64906;51.290;7.348;2023-02-24T00:36:33;40.42;;;22.70;;
76155;SDS011;64906;51.290;7.348;2023-02-24T00:39:00;36.45;;;21.02;;
76155;SDS011;64906;51.290;7.348;2023-02-24T00:41:39;38.15;;;22.50;;
76155;SDS011;64906;51.290;7.348;2023-02-24T00:44:07;41.83;;;22.95;;
76155;SDS011;64906;51.290;7.348;2023-02-24T00:49:06;40.20;;;21.63;;
76155;SDS011;64906;51.290;7.348;2023-02-24T00:51:36;40.47;;;22.15;;
76155;SDS011;64906;51.290;7.348;2023-02-24T00:54:05;39.55;;;22.45;;
76155;SDS011;64906;51.290;7.348;2023-02-24T00:56:32;38.50;;;21.42;;
76155;SDS011;64906;51.290;7.348;2023-02-24T00:58:59;38.97;;;22.35;;
76155;SDS011;64906;51.290;7.348;2023-02-24T01:01:26;36.40;;;20.65;;
76155;SDS011;64906;51.290;7.348;2023-02-24T01:03:57;39.55;;;21.75;;
76155;SDS011;64906;51.290;7.348;2023-02-24T01:06:26;37.15;;;21.65;;
76155;SDS011;64906;51.290;7.348;2023-02-24T01:08:53;37.15;;;21.83;;
76155;SDS011;64906;51.290;7.348;2023-02-24T01:11:24;42.42;;;21.38;;
76155;SDS011;64906;51.290;7.348;2023-02-24T01:14:11;40.13;;;21.38;;
76155;SDS011;64906;51.290;7.348;2023-02-24T01:16:42;38.45;;;20.30;;
76155;SDS011;64906;51.290;7.348;2023-02-24T01:19:15;35.42;;;20.23;;
76155;SDS011;64906;51.290;7.348;2023-02-24T01:21:59;42.28;;;21.55;;
76155;SDS011;64906;51.290;7.348;2023-02-24T01:24:27;38.53;;;20.63;;
76155;SDS011;64906;51.290;7.348;2023-02-24T01:26:57;38.08;;;20.23;;
76155;SDS011;64906;51.290;7.348;2023-02-24T01:29:23;36.92;;;21.17;;
76155;SDS011;64906;51.290;7.348;2023-02-24T01:31:51;36.30;;;20.02;;
76155;SDS011;64906;51.290;7.348;2023-02-24T01:34:26;37.40;;;19.88;;
76155;SDS011;64906;51.290;7.348;2023-02-24T01:36:52;37.38;;;19.98;;
76155;SDS011;64906;51.290;7.348;2023-02-24T01:39:19;34.40;;;19.80;;
76155;SDS011;64906;51.290;7.348;2023-02-24T01:41:45;35.72;;;19.58;;
76155;SDS011;64906;51.290;7.348;2023-02-24T01:46:42;40.20;;;20.40;;
76155;SDS011;64906;51.290;7.348;2023-02-24T01:51:40;34.15;;;18.58;;
76155;SDS011;64906;51.290;7.348;2023-02-24T01:54:17;31.58;;;18.45;;
76155;SDS011;64906;51.290;7.348;2023-02-24T01:56:46;31.55;;;18.95;;
76155;SDS011;64906;51.290;7.348;2023-02-24T01:59:14;29.77;;;17.90;;
76155;SDS011;64906;51.290;7.348;2023-02-24T02:01:40;33.55;;;19.67;;
76155;SDS011;64906;51.290;7.348;2023-02-24T02:06:44;36.15;;;18.30;;
76155;SDS011;64906;51.290;7.348;2023-02-24T02:09:12;32.25;;;19.02;;
76155;SDS011;64906;51.290;7.348;2023-02-24T02:11:42;30.25;;;17.55;;
76155;SDS011;64906;51.290;7.348;2023-02-24T02:14:20;29.05;;;17.38;;
76155;SDS011;64906;51.290;7.348;2023-02-24T02:17:13;32.45;;;17.95;;
76155;SDS011;64906;51.290;7.348;2023-02-24T02:33:21;31.95;;;17.10;;
76155;SDS011;64906;51.290;7.348;2023-02-24T02:36:14;31.88;;;17.73;;
76155;SDS011;64906;51.290;7.348;2023-02-24T02:39:14;32.47;;;16.90;;
76155;SDS011;64906;51.290;7.348;2023-02-24T02:44:18;30.02;;;16.48;;
76155;SDS011;64906;51.290;7.348;2023-02-24T02:47:07;30.00;;;16.13;;
76155;SDS011;64906;51.290;7.348;2023-02-24T02:49:39;29.15;;;16.25;;
76155;SDS011;64906;51.290;7.348;2023-02-24T02:57:25;25.52;;;15.38;;
76155;SDS011;64906;51.290;7.348;2023-02-24T02:59:56;29.40;;;16.45;;
76155;SDS011;64906;51.290;7.348;2023-02-24T03:02:38;30.08;;;17.02;;
76155;SDS011;64906;51.290;7.348;2023-02-24T03:05:09;28.48;;;14.95;;
76155;SDS011;64906;51.290;7.348;2023-02-24T03:07:42;27.25;;;14.48;;
76155;SDS011;64906;51.290;7.348;2023-02-24T03:10:15;29.27;;;15.18;;
76155;SDS011;64906;51.290;7.348;2023-02-24T03:12:48;27.33;;;16.02;;
76155;SDS011;64906;51.290;7.348;2023-02-24T03:15:18;26.83;;;15.55;;
76155;SDS011;64906;51.290;7.348;2023-02-24T03:17:45;28.80;;;14.85;;
76155;SDS011;64906;51.290;7.348;2023-02-24T03:20:22;28.10;;;15.13;;
76155;SDS011;64906;51.290;7.348;2023-02-24T03:23:06;26.35;;;14.27;;
76155;SDS011;64906;51.290;7.348;2023-02-24T03:25:44;23.92;;;13.40;;
76155;SDS011;64906;51.290;7.348;2023-02-24T03:31:28;24.83;;;13.98;;
76155;SDS011;64906;51.290;7.348;2023-02-24T03:36:53;23.92;;;14.25;;
76155;SDS011;64906;51.290;7.348;2023-02-24T03:39:20;27.90;;;14.85;;
76155;SDS011;64906;51.290;7.348;2023-02-24T03:44:26;24.30;;;13.10;;
76155;SDS011;64906;51.290;7.348;2023-02-24T03:46:53;24.80;;;13.23;;
76155;SDS011;64906;51.290;7.348;2023-02-24T03:49:20;23.88;;;12.93;;
76155;SDS011;64906;51.290;7.348;2023-02-24T03:54:57;23.73;;;13.43;;
76155;SDS011;64906;51.290;7.348;2023-02-24T03:57:39;21.85;;;12.60;;
76155;SDS011;64906;51.290;7.348;2023-02-24T04:09:02;22.55;;;12.63;;
76155;SDS011;64906;51.290;7.348;2023-02-24T04:11:55;23.92;;;12.32;;
76155;SDS011;64906;51.290;7.348;2023-02-24T04:14:49;25.92;;;12.85;;
76155;SDS011;64906;51.290;7.348;2023-02-24T04:17:32;23.35;;;12.40;;
76155;SDS011;64906;51.290;7.348;2023-02-24T04:20:14;24.10;;;12.27;;
76155;SDS011;64906;51.290;7.348;2023-02-24T04:25:17;22.85;;;12.25;;
76155;SDS011;64906;51.290;7.348;2023-02-24T04:27:52;22.17;;;12.55;;
76155;SDS011;64906;51.290;7.348;2023-02-24T04:30:23;22.17;;;13.73;;
76155;SDS011;64906;51.290;7.348;2023-02-24T04:32:51;21.85;;;11.93;;
76155;SDS011;64906;51.290;7.348;2023-02-24T04:35:18;22.63;;;12.07;;
76155;SDS011;64906;51.290;7.348;2023-02-24T04:37:47;21.77;;;11.80;;
76155;SDS011;64906;51.290;7.348;2023-02-24T04:40:15;23.90;;;11.30;;
76155;SDS011;64906;51.290;7.348;2023-02-24T04:42:43;20.33;;;12.52;;
76155;SDS011;64906;51.290;7.348;2023-02-24T04:45:17;20.85;;;11.23;;
76155;SDS011;64906;51.290;7.348;2023-02-24T04:47:44;20.88;;;11.25;;
76155;SDS011;64906;51.290;7.348;2023-02-24T04:50:13;19.00;;;10.85;;
76155;SDS011;64906;51.290;7.348;2023-02-24T04:52:56;18.90;;;10.98;;
76155;SDS011;64906;51.290;7.348;2023-02-24T04:55:25;20.98;;;12.02;;
76155;SDS011;64906;51.290;7.348;2023-02-24T04:58:14;21.98;;;11.32;;
76155;SDS011;64906;51.290;7.348;2023-02-24T05:00:48;17.80;;;10.40;;
76155;SDS011;64906;51.290;7.348;2023-02-24T05:03:17;23.75;;;11.48;;
76155;SDS011;64906;51.290;7.348;2023-02-24T05:05:52;21.42;;;11.27;;
76155;SDS011;64906;51.290;7.348;2023-02-24T05:08:24;22.95;;;11.77;;
76155;SDS011;64906;51.290;7.348;2023-02-24T05:10:52;19.33;;;10.40;;
76155;SDS011;64906;51.290;7.348;2023-02-24T05:13:24;20.90;;;10.82;;
76155;SDS011;64906;51.290;7.348;2023-02-24T05:18:22;20.27;;;10.02;;
76155;SDS011;64906;51.290;7.348;2023-02-24T05:20:49;19.83;;;10.93;;
76155;SDS011;64906;51.290;7.348;2023-02-24T05:23:39;21.15;;;9.98;;
76155;SDS011;64906;51.290;7.348;2023-02-24T05:26:10;20.63;;;10.07;;
76155;SDS011;64906;51.290;7.348;2023-02-24T05:28:41;22.98;;;10.43;;
76155;SDS011;64906;51.290;7.348;2023-02-24T05:31:12;19.83;;;10.38;;
76155;SDS011;64906;51.290;7.348;2023-02-24T05:33:41;16.80;;;10.10;;
76155;SDS011;64906;51.290;7.348;2023-02-24T05:36:09;22.13;;;10.15;;
76155;SDS011;64906;51.290;7.348;2023-02-24T05:38:39;18.65;;;10.00;;
76155;SDS011;64906;51.290;7.348;2023-02-24T05:43:32;19.38;;;10.27;;
76155;SDS011;64906;51.290;7.348;2023-02-24T05:46:00;17.55;;;10.38;;
76155;SDS011;64906;51.290;7.348;2023-02-24T05:48:31;19.52;;;9.07;;
76155;SDS011;64906;51.290;7.348;2023-02-24T05:51:03;19.88;;;9.23;;
76155;SDS011;64906;51.290;7.348;2023-02-24T05:53:36;17.83;;;9.73;;
76155;SDS011;64906;51.290;7.348;2023-02-24T05:56:08;18.88;;;9.65;;
76155;SDS011;64906;51.290;7.348;2023-02-24T05:58:36;15.25;;;8.82;;
76155;SDS011;64906;51.290;7.348;2023-02-24T06:01:12;17.52;;;9.20;;
76155;SDS011;64906;51.290;7.348;2023-02-24T06:03:44;16.25;;;8.77;;
76155;SDS011;64906;51.290;7.348;2023-02-24T06:06:14;17.95;;;9.57;;
76155;SDS011;64906;51.290;7.348;2023-02-24T06:08:41;18.02;;;8.90;;
76155;SDS011;64906;51.290;7.348;2023-02-24T06:11:15;16.10;;;8.23;;
76155;SDS011;64906;51.290;7.348;2023-02-24T06:13:47;17.33;;;9.02;;
76155;SDS011;64906;51.290;7.348;2023-02-24T06:16:22;16.95;;;8.75;;
76155;SDS011;64906;51.290;7.348;2023-02-24T06:18:50;20.48;;;9.48;;
76155;SDS011;64906;51.290;7.348;2023-02-24T06:21:17;16.20;;;8.07;;
76155;SDS011;64906;51.290;7.348;2023-02-24T06:23:43;18.13;;;8.88;;
76155;SDS011;64906;51.290;7.348;2023-02-24T06:26:11;18.15;;;9.00;;
76155;SDS011;64906;51.290;7.348;2023-02-24T06:28:44;18.15;;;8.07;;
76155;SDS011;64906;51.290;7.348;2023-02-24T06:31:13;17.98;;;8.50;;
76155;SDS011;64906;51.290;7.348;2023-02-24T06:33:40;16.02;;;8.40;;
76155;SDS011;64906;51.290;7.348;2023-02-24T06:36:06;16.52;;;8.70;;
76155;SDS011;64906;51.290;7.348;2023-02-24T06:38:33;16.70;;;8.48;;
76155;SDS011;64906;51.290;7.348;2023-02-24T06:41:00;14.23;;;7.82;;
76155;SDS011;64906;51.290;7.348;2023-02-24T06:43:29;18.38;;;9.30;;
76155;SDS011;64906;51.290;7.348;2023-02-24T06:45:55;17.13;;;8.13;;
76155;SDS011;64906;51.290;7.348;2023-02-24T06:48:22;16.23;;;8.98;;
76155;SDS011;64906;51.290;7.348;2023-02-24T06:50:48;18.85;;;8.20;;
76155;SDS011;64906;51.290;7.348;2023-02-24T06:55:44;13.77;;;8.02;;
76155;SDS011;64906;51.290;7.348;2023-02-24T06:58:14;16.52;;;8.27;;
76155;SDS011;64906;51.290;7.348;2023-02-24T07:00:42;14.38;;;7.80;;
76155;SDS011;64906;51.290;7.348;2023-02-24T07:03:21;15.45;;;8.07;;
76155;SDS011;64906;51.290;7.348;2023-02-24T07:06:03;15.48;;;8.45;;
76155;SDS011;64906;51.290;7.348;2023-02-24T07:08:47;14.98;;;7.72;;
76155;SDS011;64906;51.290;7.348;2023-02-24T07:11:13;13.45;;;7.72;;
76155;SDS011;64906;51.290;7.348;2023-02-24T07:13:42;14.48;;;7.85;;
76155;SDS011;64906;51.290;7.348;2023-02-24T07:16:08;13.80;;;7.20;;
76155;SDS011;64906;51.290;7.348;2023-02-24T07:18:36;15.50;;;7.65;;
76155;SDS011;64906;51.290;7.348;2023-02-24T07:21:06;16.50;;;8.10;;
76155;SDS011;64906;51.290;7.348;2023-02-24T07:23:41;14.90;;;7.22;;
76155;SDS011;64906;51.290;7.348;2023-02-24T07:26:12;17.08;;;8.15;;
76155;SDS011;64906;51.290;7.348;2023-02-24T07:28:40;13.88;;;7.70;;
76155;SDS011;64906;51.290;7.348;2023-02-24T07:31:08;14.50;;;7.47;;
76155;SDS011;64906;51.290;7.348;2023-02-24T07:33:37;18.58;;;7.82;;
76155;SDS011;64906;51.290;7.348;2023-02-24T07:36:04;13.02;;;7.10;;
76155;SDS011;64906;51.290;7.348;2023-02-24T07:38:34;15.00;;;7.68;;
76155;SDS011;64906;51.290;7.348;2023-02-24T07:41:02;13.65;;;7.32;;
76155;SDS011;64906;51.290;7.348;2023-02-24T07:43:33;15.23;;;7.57;;
76155;SDS011;64906;51.290;7.348;2023-02-24T07:46:07;15.52;;;7.47;;
76155;SDS011;64906;51.290;7.348;2023-02-24T07:48:40;15.32;;;7.05;;
76155;SDS011;64906;51.290;7.348;2023-02-24T07:54:28;13.02;;;6.85;;
76155;SDS011;64906;51.290;7.348;2023-02-24T07:56:55;14.43;;;7.68;;
76155;SDS011;64906;51.290;7.348;2023-02-24T07:59:27;15.48;;;7.13;;
76155;SDS011;64906;51.290;7.348;2023-02-24T08:01:55;15.88;;;7.75;;
76155;SDS011;64906;51.290;7.348;2023-02-24T08:04:28;17.50;;;8.63;;
76155;SDS011;64906;51.290;7.348;2023-02-24T08:06:57;18.13;;;10.15;;
76155;SDS011;64906;51.290;7.348;2023-02-24T08:15:27;23.20;;;12.05;;
76155;SDS011;64906;51.290;7.348;2023-02-24T08:18:01;27.38;;;14.13;;
76155;SDS011;64906;51.290;7.348;2023-02-24T08:20:30;26.85;;;15.20;;
76155;SDS011;64906;51.290;7.348;2023-02-24T08:23:22;30.13;;;17.63;;
76155;SDS011;64906;51.290;7.348;2023-02-24T08:25:53;27.83;;;17.17;;
76155;SDS011;64906;51.290;7.348;2023-02-24T08:28:18;28.73;;;18.20;;
76155;SDS011;64906;51.290;7.348;2023-02-24T08:30:44;34.58;;;19.92;;
76155;SDS011;64906;51.290;7.348;2023-02-24T08:33:11;36.42;;;21.55;;
76155;SDS011;64906;51.290;7.348;2023-02-24T08:35:42;37.10;;;21.25;;
76155;SDS011;64906;51.290;7.348;2023-02-24T08:41:13;45.55;;;28.33;;
76155;SDS011;64906;51.290;7.348;2023-02-24T08:43:45;48.20;;;28.63;;
76155;SDS011;64906;51.290;7.348;2023-02-24T08:46:20;45.95;;;28.70;;
76155;SDS011;64906;51.290;7.348;2023-02-24T08:48:57;46.00;;;27.92;;
76155;SDS011;64906;51.290;7.348;2023-02-24T08:54:00;45.25;;;29.45;;
76155;SDS011;64906;51.290;7.348;2023-02-24T08:56:41;50.10;;;31.15;;
76155;SDS011;64906;51.290;7.348;2023-02-24T08:59:14;50.42;;;30.25;;
76155;SDS011;64906;51.290;7.348;2023-02-24T09:02:12;55.58;;;33.55;;
76155;SDS011;64906;51.290;7.348;2023-02-24T09:04:44;59.60;;;39.40;;
76155;SDS011;64906;51.290;7.348;2023-02-24T09:07:15;57.05;;;36.15;;
76155;SDS011;64906;51.290;7.348;2023-02-24T09:09:46;60.42;;;38.45;;
76155;SDS011;64906;51.290;7.348;2023-02-24T09:12:13;68.25;;;41.50;;
76155;SDS011;64906;51.290;7.348;2023-02-24T09:14:52;71.22;;;43.15;;
76155;SDS011;64906;51.290;7.348;2023-02-24T09:17:28;72.95;;;43.17;;
76155;SDS011;64906;51.290;7.348;2023-02-24T09:20:08;73.88;;;44.10;;
76155;SDS011;64906;51.290;7.348;2023-02-24T09:22:57;79.85;;;45.53;;
76155;SDS011;64906;51.290;7.348;2023-02-24T09:25:32;90.45;;;48.15;;
76155;SDS011;64906;51.290;7.348;2023-02-24T09:28:17;88.38;;;48.25;;
76155;SDS011;64906;51.290;7.348;2023-02-24T09:30:56;92.38;;;49.53;;
76155;SDS011;64906;51.290;7.348;2023-02-24T09:33:33;97.43;;;51.55;;
76155;SDS011;64906;51.290;7.348;2023-02-24T09:36:12;98.10;;;52.35;;
76155;SDS011;64906;51.290;7.348;2023-02-24T09:38:59;104.15;;;56.45;;
76155;SDS011;64906;51.290;7.348;2023-02-24T09:41:37;110.35;;;53.95;;
76155;SDS011;64906;51.290;7.348;2023-02-24T09:44:31;105.80;;;53.25;;
76155;SDS011;64906;51.290;7.348;2023-02-24T09:47:08;107.28;;;55.97;;
76155;SDS011;64906;51.290;7.348;2023-02-24T09:55:56;120.85;;;57.15;;
76155;SDS011;64906;51.290;7.348;2023-02-24T09:58:35;129.35;;;60.40;;
76155;SDS011;64906;51.290;7.348;2023-02-24T10:06:42;133.35;;;63.88;;
76155;SDS011;64906;51.290;7.348;2023-02-24T10:11:58;143.80;;;70.70;;
76155;SDS011;64906;51.290;7.348;2023-02-24T10:14:53;148.45;;;70.55;;
76155;SDS011;64906;51.290;7.348;2023-02-24T10:18:32;171.70;;;94.80;;
76155;SDS011;64906;51.290;7.348;2023-02-24T10:21:23;154.32;;;76.18;;
76155;SDS011;64906;51.290;7.348;2023-02-24T10:34:42;160.83;;;76.07;;
76155;SDS011;64906;51.290;7.348;2023-02-24T10:37:13;151.05;;;75.88;;
76155;SDS011;64906;51.290;7.348;2023-02-24T10:39:46;155.70;;;77.57;;
76155;SDS011;64906;51.290;7.348;2023-02-24T10:42:34;157.07;;;78.72;;
76155;SDS011;64906;51.290;7.348;2023-02-24T10:47:54;154.60;;;78.45;;
76155;SDS011;64906;51.290;7.348;2023-02-24T10:50:28;153.43;;;79.50;;
76155;SDS011;64906;51.290;7.348;2023-02-24T10:53:05;153.13;;;79.50;;
76155;SDS011;64906;51.290;7.348;2023-02-24T10:55:50;141.27;;;75.53;;
76155;SDS011;64906;51.290;7.348;2023-02-24T10:58:39;140.27;;;72.72;;
76155;SDS011;64906;51.290;7.348;2023-02-24T11:04:03;145.70;;;74.47;;
76155;SDS011;64906;51.290;7.348;2023-02-24T11:07:06;151.85;;;80.85;;
76155;SDS011;64906;51.290;7.348;2023-02-24T11:12:19;141.30;;;73.32;;
76155;SDS011;64906;51.290;7.348;2023-02-24T11:15:30;136.60;;;69.13;;
76155;SDS011;64906;51.290;7.348;2023-02-24T11:18:16;137.85;;;65.95;;
76155;SDS011;64906;51.290;7.348;2023-02-24T11:21:07;126.70;;;66.78;;
76155;SDS011;64906;51.290;7.348;2023-02-24T11:23:34;129.55;;;66.40;;
76155;SDS011;64906;51.290;7.348;2023-02-24T11:26:13;123.60;;;64.25;;
76155;SDS011;64906;51.290;7.348;2023-02-24T11:43:16;132.88;;;68.60;;
76155;SDS011;64906;51.290;7.348;2023-02-24T11:45:49;139.40;;;71.45;;
76155;SDS011;64906;51.290;7.348;2023-02-24T11:48:26;132.52;;;69.30;;
76155;SDS011;64906;51.290;7.348;2023-02-24T11:55:59;138.52;;;67.85;;
76155;SDS011;64906;51.290;7.348;2023-02-24T11:58:51;127.63;;;69.95;;
76155;SDS011;64906;51.290;7.348;2023-02-24T12:01:44;130.27;;;75.43;;
76155;SDS011;64906;51.290;7.348;2023-02-24T12:10:13;131.35;;;67.68;;
76155;SDS011;64906;51.290;7.348;2023-02-24T12:20:35;130.55;;;70.53;;
76155;SDS011;64906;51.290;7.348;2023-02-24T12:23:35;127.18;;;69.05;;
76155;SDS011;64906;51.290;7.348;2023-02-24T12:26:21;136.27;;;68.40;;
76155;SDS011;64906;51.290;7.348;2023-02-24T12:31:37;124.65;;;66.93;;
76155;SDS011;64906;51.290;7.348;2023-02-24T12:37:15;126.45;;;67.95;;
76155;SDS011;64906;51.290;7.348;2023-02-24T12:43:31;128.18;;;69.38;;
76155;SDS011;64906;51.290;7.348;2023-02-24T12:54:28;125.65;;;68.25;;
76155;SDS011;64906;51.290;7.348;2023-02-24T12:59:56;117.15;;;67.72;;
76155;SDS011;64906;51.290;7.348;2023-02-24T13:03:16;118.05;;;66.45;;
76155;SDS011;64906;51.290;7.348;2023-02-24T13:11:04;127.45;;;69.60;;
76155;SDS011;64906;51.290;7.348;2023-02-24T13:13:42;121.90;;;67.78;;
76155;SDS011;64906;51.290;7.348;2023-02-24T13:16:25;123.15;;;67.80;;
76155;SDS011;64906;51.290;7.348;2023-02-24T13:19:02;125.68;;;70.55;;
76155;SDS011;64906;51.290;7.348;2023-02-24T13:21:43;117.18;;;66.95;;
76155;SDS011;64906;51.290;7.348;2023-02-24T13:24:26;123.30;;;66.53;;
76155;SDS011;64906;51.290;7.348;2023-02-24T13:27:02;121.05;;;66.13;;
76155;SDS011;64906;51.290;7.348;2023-02-24T13:29:40;124.57;;;68.82;;
76155;SDS011;64906;51.290;7.348;2023-02-24T13:34:56;120.43;;;67.75;;
76155;SDS011;64906;51.290;7.348;2023-02-24T13:37:32;114.50;;;64.13;;
76155;SDS011;64906;51.290;7.348;2023-02-24T13:39:59;113.97;;;65.53;;
76155;SDS011;64906;51.290;7.348;2023-02-24T13:42:26;114.13;;;65.95;;
76155;SDS011;64906;51.290;7.348;2023-02-24T13:47:40;119.30;;;64.70;;
76155;SDS011;64906;51.290;7.348;2023-02-24T13:50:22;109.75;;;63.50;;
76155;SDS011;64906;51.290;7.348;2023-02-24T13:55:35;115.63;;;62.22;;
76155;SDS011;64906;51.290;7.348;2023-02-24T13:58:32;106.20;;;61.33;;
76155;SDS011;64906;51.290;7.348;2023-02-24T14:01:30;116.85;;;63.00;;
76155;SDS011;64906;51.290;7.348;2023-02-24T14:04:20;113.07;;;63.10;;
76155;SDS011;64906;51.290;7.348;2023-02-24T14:06:51;110.47;;;62.80;;
76155;SDS011;64906;51.290;7.348;2023-02-24T14:09:21;116.40;;;62.65;;
76155;SDS011;64906;51.290;7.348;2023-02-24T14:11:53;112.57;;;62.38;;
76155;SDS011;64906;51.290;7.348;2023-02-24T14:14:29;107.60;;;61.72;;
76155;SDS011;64906;51.290;7.348;2023-02-24T14:16:55;111.68;;;61.83;;
76155;SDS011;64906;51.290;7.348;2023-02-24T14:19:23;120.25;;;61.58;;
76155;SDS011;64906;51.290;7.348;2023-02-24T14:21:52;109.78;;;61.35;;
76155;SDS011;64906;51.290;7.348;2023-02-24T14:24:20;108.53;;;62.08;;
76155;SDS011;64906;51.290;7.348;2023-02-24T14:26:48;105.88;;;61.67;;
76155;SDS011;64906;51.290;7.348;2023-02-24T14:29:22;103.95;;;59.15;;
76155;SDS011;64906;51.290;7.348;2023-02-24T14:31:52;106.45;;;61.00;;
76155;SDS011;64906;51.290;7.348;2023-02-24T14:34:20;105.78;;;60.35;;
76155;SDS011;64906;51.290;7.348;2023-02-24T14:36:50;104.13;;;59.20;;
76155;SDS011;64906;51.290;7.348;2023-02-24T14:39:25;105.18;;;59.47;;
76155;SDS011;64906;51.290;7.348;2023-02-24T14:44:31;112.72;;;60.72;;
76155;SDS011;64906;51.290;7.348;2023-02-24T14:47:03;102.18;;;58.85;;
76155;SDS011;64906;51.290;7.348;2023-02-24T14:49:33;100.60;;;57.13;;
76155;SDS011;64906;51.290;7.348;2023-02-24T14:52:03;102.60;;;57.83;;
76155;SDS011;64906;51.290;7.348;2023-02-24T14:57:09;94.72;;;55.83;;
76155;SDS011;64906;51.290;7.348;2023-02-24T14:59:38;104.90;;;63.10;;
76155;SDS011;64906;51.290;7.348;2023-02-24T15:02:15;99.53;;;57.25;;
76155;SDS011;64906;51.290;7.348;2023-02-24T15:07:14;98.15;;;55.10;;
76155;SDS011;64906;51.290;7.348;2023-02-24T15:09:44;91.18;;;54.60;;
76155;SDS011;64906;51.290;7.348;2023-02-24T15:12:19;93.90;;;55.22;;
76155;SDS011;64906;51.290;7.348;2023-02-24T15:14:59;89.47;;;54.28;;
76155;SDS011;64906;51.290;7.348;2023-02-24T15:17:31;93.32;;;53.83;;
76155;SDS011;64906;51.290;7.348;2023-02-24T15:19:57;90.88;;;52.33;;
76155;SDS011;64906;51.290;7.348;2023-02-24T15:22:33;91.03;;;52.00;;
76155;SDS011;64906;51.290;7.348;2023-02-24T15:25:16;89.32;;;51.58;;
76155;SDS011;64906;51.290;7.348;2023-02-24T15:27:52;92.90;;;52.70;;
76155;SDS011;64906;51.290;7.348;2023-02-24T15:33:01;85.72;;;51.95;;
76155;SDS011;64906;51.290;7.348;2023-02-24T15:35:37;87.18;;;51.63;;
76155;SDS011;64906;51.290;7.348;2023-02-24T15:38:13;88.68;;;51.03;;
76155;SDS011;64906;51.290;7.348;2023-02-24T15:40:52;91.95;;;51.05;;
76155;SDS011;64906;51.290;7.348;2023-02-24T15:43:32;89.57;;;50.40;;
76155;SDS011;64906;51.290;7.348;2023-02-24T15:48:55;81.97;;;49.13;;
76155;SDS011;64906;51.290;7.348;2023-02-24T15:56:56;83.47;;;49.35;;
76155;SDS011;64906;51.290;7.348;2023-02-24T15:59:23;89.55;;;50.63;;
76155;SDS011;64906;51.290;7.348;2023-02-24T16:01:49;86.35;;;50.80;;
76155;SDS011;64906;51.290;7.348;2023-02-24T16:04:18;81.85;;;53.17;;
76155;SDS011;64906;51.290;7.348;2023-02-24T16:06:52;80.40;;;48.15;;
76155;SDS011;64906;51.290;7.348;2023-02-24T16:09:34;82.75;;;48.58;;
76155;SDS011;64906;51.290;7.348;2023-02-24T16:12:02;75.82;;;47.42;;
76155;SDS011;64906;51.290;7.348;2023-02-24T16:14:33;88.40;;;52.83;;
76155;SDS011;64906;51.290;7.348;2023-02-24T16:17:00;79.95;;;47.30;;
76155;SDS011;64906;51.290;7.348;2023-02-24T16:19:30;80.28;;;50.90;;
76155;SDS011;64906;51.290;7.348;2023-02-24T16:21:56;80.90;;;47.40;;
76155;SDS011;64906;51.290;7.348;2023-02-24T16:24:25;77.65;;;47.15;;
76155;SDS011;64906;51.290;7.348;2023-02-24T16:26:51;75.32;;;45.70;;
76155;SDS011;64906;51.290;7.348;2023-02-24T16:29:17;77.45;;;45.83;;
76155;SDS011;64906;51.290;7.348;2023-02-24T16:31:49;78.57;;;45.42;;
76155;SDS011;64906;51.290;7.348;2023-02-24T16:34:15;73.80;;;44.83;;
76155;SDS011;64906;51.290;7.348;2023-02-24T16:36:41;77.32;;;45.65;;
76155;SDS011;64906;51.290;7.348;2023-02-24T16:39:10;73.97;;;45.90;;
76155;SDS011;64906;51.290;7.348;2023-02-24T16:41:38;72.47;;;41.92;;
76155;SDS011;64906;51.290;7.348;2023-02-24T16:44:04;79.68;;;47.55;;
76155;SDS011;64906;51.290;7.348;2023-02-24T16:46:31;74.13;;;45.88;;
76155;SDS011;64906;51.290;7.348;2023-02-24T16:49:01;79.40;;;48.10;;
76155;SDS011;64906;51.290;7.348;2023-02-24T16:51:33;84.65;;;49.97;;
76155;SDS011;64906;51.290;7.348;2023-02-24T16:54:00;72.63;;;45.03;;
76155;SDS011;64906;51.290;7.348;2023-02-24T16:56:26;81.78;;;45.45;;
76155;SDS011;64906;51.290;7.348;2023-02-24T16:58:52;76.90;;;47.22;;
76155;SDS011;64906;51.290;7.348;2023-02-24T17:01:18;82.47;;;47.72;;
76155;SDS011;64906;51.290;7.348;2023-02-24T17:03:47;76.85;;;47.33;;
76155;SDS011;64906;51.290;7.348;2023-02-24T17:06:16;77.13;;;46.17;;
76155;SDS011;64906;51.290;7.348;2023-02-24T17:08:45;78.50;;;45.97;;
76155;SDS011;64906;51.290;7.348;2023-02-24T17:11:16;78.65;;;45.95;;
76155;SDS011;64906;51.290;7.348;2023-02-24T17:13:44;83.65;;;46.70;;
76155;SDS011;64906;51.290;7.348;2023-02-24T17:16:11;77.47;;;44.28;;
76155;SDS011;64906;51.290;7.348;2023-02-24T17:18:37;75.20;;;44.53;;
76155;SDS011;64906;51.290;7.348;2023-02-24T17:21:05;68.70;;;42.67;;
76155;SDS011;64906;51.290;7.348;2023-02-24T17:23:31;72.65;;;42.63;;
76155;SDS011;64906;51.290;7.348;2023-02-24T17:25:59;72.50;;;41.67;;
76155;SDS011;64906;51.290;7.348;2023-02-24T17:28:26;70.70;;;43.17;;
76155;SDS011;64906;51.290;7.348;2023-02-24T17:30:52;68.05;;;41.25;;
76155;SDS011;64906;51.290;7.348;2023-02-24T17:33:18;67.10;;;38.72;;
76155;SDS011;64906;51.290;7.348;2023-02-24T17:35:44;66.03;;;40.45;;
76155;SDS011;64906;51.290;7.348;2023-02-24T17:38:13;67.05;;;42.90;;
76155;SDS011;64906;51.290;7.348;2023-02-24T17:40:40;66.15;;;39.35;;
76155;SDS011;64906;51.290;7.348;2023-02-24T17:43:07;71.50;;;38.88;;
76155;SDS011;64906;51.290;7.348;2023-02-24T17:45:34;72.65;;;38.92;;
76155;SDS011;64906;51.290;7.348;2023-02-24T17:48:00;63.80;;;37.17;;
76155;SDS011;64906;51.290;7.348;2023-02-24T17:50:26;66.93;;;38.55;;
76155;SDS011;64906;51.290;7.348;2023-02-24T17:52:51;63.67;;;36.63;;
76155;SDS011;64906;51.290;7.348;2023-02-24T17:55:17;67.53;;;35.90;;
76155;SDS011;64906;51.290;7.348;2023-02-24T17:57:43;64.00;;;36.85;;
76155;SDS011;64906;51.290;7.348;2023-02-24T18:00:10;70.03;;;37.28;;
76155;SDS011;64906;51.290;7.348;2023-02-24T18:02:39;64.57;;;36.40;;
76155;SDS011;64906;51.290;7.348;2023-02-24T18:05:07;61.70;;;37.20;;
76155;SDS011;64906;51.290;7.348;2023-02-24T18:07:34;65.22;;;39.60;;
76155;SDS011;64906;51.290;7.348;2023-02-24T18:10:01;63.75;;;35.10;;
76155;SDS011;64906;51.290;7.348;2023-02-24T18:12:27;60.10;;;35.38;;